Coral Princess — ZCDF4 — position and weather

sailwx.info

Track history (hours):
 
Tides and Currents Weather Stations Pressure Air Temp Water Temp Dewpoint Dewpoint Depression Visibility Wind Speed Wind Dir Waves Ship Positions

Coral Princess

Operator: Princess Cruises

Last reported at 2018-May-23 22:29 UTC. Time now 2018-May-23 22:29 UTC.
Position N 49°17' W 123°06'.

Type: Passenger vessel. MMSI: 310376000.

Date/timePositionNaut miles runAvg speedWind from/ knotsBaromVisibWave heightAir tempDewpointWater temp
2018-May-23 22:29N 49°17' W 123°06'0 0.0
2018-May-23 21:59N 49°17' W 123°06'0 0.0
2018-May-23 21:29N 49°17' W 123°06'0 0.0
2018-May-23 20:59N 49°17' W 123°06'0 0.0
2018-May-23 20:29N 49°17' W 123°06'0 0.0
2018-May-23 19:59N 49°17' W 123°06'0 0.0
2018-May-23 19:29N 49°17' W 123°06'0 0.0
2018-May-23 18:59N 49°17' W 123°06'0 0.0
2018-May-23 18:29N 49°17' W 123°06'0 0.0
2018-May-23 17:59N 49°17' W 123°06'0 0.0
2018-May-23 17:29N 49°17' W 123°06'0 0.0
2018-May-23 16:59N 49°17' W 123°06'0 0.0
2018-May-23 16:29N 49°17' W 123°06'0 0.0
2018-May-23 15:59N 49°17' W 123°06'0 0.0
2018-May-23 15:29N 49°17' W 123°06'0 0.0
2018-May-23 14:59N 49°17' W 123°06'0 0.0
2018-May-23 14:29N 49°17' W 123°06'0 0.0
2018-May-23 14:00N 49°17' W 123°06'1 1.0
2018-May-23 13:30N 49°18' W 123°06'4 7.4
2018-May-23 13:00N 49°19' W 123°12'510.5
2018-May-23 12:30N 49°19' W 123°20'5 9.3
2018-May-23 12:00N 49°19' W 123°27'816.7
2018-May-23 11:30N 49°20' W 123°40'817.0
2018-May-23 11:00N 49°21' W 123°53'1019.6
2018-May-23 10:30N 49°23' W 124°07'1120.4
2018-May-23 09:59N 49°27' W 124°23'1020.7
2018-May-23 09:30N 49°33' W 124°34'1121.2
2018-May-23 09:01N 49°41' W 124°45'1121.5
2018-May-23 08:31N 49°49' W 124°56'1020.2
2018-May-23 08:00N 49°56' W 125°07'714.4
2018-May-23 07:30N 50°02' W 125°14'713.8
2018-May-23 07:01N 50°07' W 125°21'712.8
2018-May-23 06:29N 50°14' W 125°23'612.5
2018-May-23 06:00N 50°20' W 125°25'4712.9
2018-May-23 02:21N 50°31' W 126°37'513.6
2018-May-23 02:00N 50°35' W 126°42'713.8
2018-May-23 01:29N 50°39' W 126°50'714.2
2018-May-23 00:59N 50°43' W 127°00'713.9
2018-May-23 00:30N 50°45' W 127°10'713.8
2018-May-23 00:01N 50°48' W 127°20'713.9
2018-May-22 23:31N 50°51' W 127°30'714.2
2018-May-22 23:01N 50°55' W 127°39'713.7
2018-May-22 22:30N 50°59' W 127°48'610.9
2018-May-22 21:59N 51°03' W 127°54'612.9
2018-May-22 21:30N 51°07' W 128°02'612.7
2018-May-22 21:00N 51°11' W 128°10'612.5
2018-May-22 20:30N 51°15' W 128°17'612.5
2018-May-22 20:00N 51°19' W 128°25'713.4
2018-May-22 19:30N 51°23' W 128°33'713.5
2018-May-22 19:00N 51°29' W 128°39'714.1
2018-May-22 18:30N 51°35' W 128°46'714.3
2018-May-22 18:00N 51°40' W 128°53'714.2
2018-May-22 17:30N 51°46' W 128°59'714.1
2018-May-22 17:00N 51°52' W 129°06'714.1
2018-May-22 16:30N 51°57' W 129°13'714.1
2018-May-22 16:00N 52°03' W 129°20'714.4
2018-May-22 15:30N 52°09' W 129°27'815.0
2018-May-22 15:00N 52°15' W 129°34'6916.2
2018-May-22 10:47N 53°13' W 130°34'516.4
2018-May-22 10:30N 53°17' W 130°38'3 5.5
2018-May-22 10:00N 53°18' W 130°42'7142.1 140 / 321012.8 5.4 10.010.0 9.0
2018-May-22 09:56N 53°25' W 130°46'716.3
2018-May-22 09:30N 53°32' W 130°49'816.5
2018-May-22 09:00N 53°40' W 130°52'816.4
2018-May-22 08:30N 53°48' W 130°54'816.3
2018-May-22 08:00N 53°56' W 130°57'816.3
2018-May-22 07:30N 54°04' W 130°60'816.3
2018-May-22 07:00N 54°12' W 131°02'815.8
2018-May-22 06:30N 54°20' W 131°05'815.4
2018-May-22 06:00N 54°26' W 131°11'815.9
2018-May-22 05:30N 54°34' W 131°17'916.0
2018-May-22 04:56N 54°43' W 131°14'613.4
2018-May-22 04:30N 54°48' W 131°11'816.0
2018-May-22 03:58N 54°56' W 131°08'27 5.4
2018-May-21 23:00N 55°18' W 131°36'89 7.4 150 / 191013.910.8 12.0 9.010.0
2018-May-21 11:00N 56°12' W 133°42'127 2.5 250 / 131009.210.8 9.0 6.9 7.0
2018-May-19 07:00N 58°09' W 135°15'611.7
2018-May-19 06:30N 58°12' W 135°25'612.2
2018-May-19 06:00N 58°15' W 135°35'612.4
2018-May-19 05:30N 58°18' W 135°45'611.7
2018-May-19 04:59N 58°20' W 135°56'611.9
2018-May-19 04:30N 58°26' W 135°57'1 1.4
2018-May-19 04:00N 58°26' W 135°57'1 2.3
2018-May-19 03:30N 58°26' W 135°59'3 5.1
2018-May-19 03:00N 58°28' W 136°02'5 9.3
2018-May-19 02:30N 58°33' W 136°04'4 8.6
2018-May-19 02:00N 58°37' W 136°05'5 9.6
2018-May-19 01:30N 58°41' W 136°11'611.9
2018-May-19 01:00N 58°45' W 136°19'611.5
2018-May-19 00:29N 58°49' W 136°28'8 1.6
2018-May-18 19:27N 58°53' W 136°41'817.8
2018-May-18 19:00N 58°48' W 136°28'918.0
2018-May-18 18:30N 58°43' W 136°15'917.7
2018-May-18 18:00N 58°36' W 136°04'816.0
2018-May-18 17:30N 58°28' W 136°02'510.1
2018-May-18 17:01N 58°23' W 135°58'611.2
2018-May-18 16:31N 58°20' W 136°07'6010.8
2018-May-18 11:00N 58°24' W 138°00'4615.2 330 / 181016.610.8 8.5 7.4 8.0
2018-May-18 08:00N 58°54' W 139°06'140 8.2 350 / 181019.610.8 8.5 6.3 7.0
2018-May-17 15:00N 59°30' W 143°30'8120.3 140 / 81028.910.8 7.0 3.5 6.0
2018-May-17 11:00N 60°00' W 146°00'88 7.3 140 / 41025.610.8 6.0 4.8 7.0
2018-May-16 23:00N 60°42' W 148°36'218 6.0 040 / 121026.6 5.4 7.0 3.5 7.0
2018-May-15 11:00N 59°12' W 142°00'7418.6 250 / 121019.810.8 9.0-1.4 7.0
2018-May-15 07:00N 58°42' W 139°48'11216.2 250 / 151019.910.8 6.5 2.9 8.0
2018-May-15 00:04N 58°18' W 136°18'216.9
2018-May-14 23:58N 58°18' W 136°15'918.5
2018-May-14 23:30N 58°22' W 136°00'611.1
2018-May-14 23:00N 58°27' W 136°01'918.1
2018-May-14 22:30N 58°36' W 136°05'918.6
2018-May-14 22:00N 58°44' W 136°16'14 2.6
2018-May-14 16:45N 58°52' W 136°36'520.2
2018-May-14 16:30N 58°49' W 136°28'1019.6
2018-May-14 16:00N 58°42' W 136°14'919.0
2018-May-14 15:30N 58°35' W 136°04'917.0
2018-May-14 15:00N 58°26' W 136°00'5 9.7
2018-May-14 14:31N 58°22' W 136°01'11 2.7
2018-May-14 10:20N 58°18' W 136°21'722.2
2018-May-14 10:01N 58°19' W 136°07'1122.2
2018-May-14 09:30N 58°19' W 135°46'1121.3
2018-May-14 09:00N 58°14' W 135°28'  
Track history (hours):
 
Tides and Currents Weather Stations Pressure Air Temp Water Temp Dewpoint Dewpoint Depression Visibility Wind Speed Wind Dir Waves Ship Positions

Coral Princess

Operator: Princess Cruises

Last reported at 2018-May-23 22:29 UTC. Time now 2018-May-23 22:29 UTC.
Position N 49°17' W 123°06'.

Type: Passenger vessel. MMSI: 310376000.

Date/timePositionNaut miles runAvg speedWind from/ knotsBaromVisibWave heightAir tempDewpointWater temp
2018-May-23 22:29N 49°17' W 123°06'0 0.0
2018-May-23 21:59N 49°17' W 123°06'0 0.0
2018-May-23 21:29N 49°17' W 123°06'0 0.0
2018-May-23 20:59N 49°17' W 123°06'0 0.0
2018-May-23 20:29N 49°17' W 123°06'0 0.0
2018-May-23 19:59N 49°17' W 123°06'0 0.0
2018-May-23 19:29N 49°17' W 123°06'0 0.0
2018-May-23 18:59N 49°17' W 123°06'0 0.0
2018-May-23 18:29N 49°17' W 123°06'0 0.0
2018-May-23 17:59N 49°17' W 123°06'0 0.0
2018-May-23 17:29N 49°17' W 123°06'0 0.0
2018-May-23 16:59N 49°17' W 123°06'0 0.0
2018-May-23 16:29N 49°17' W 123°06'0 0.0
2018-May-23 15:59N 49°17' W 123°06'0 0.0
2018-May-23 15:29N 49°17' W 123°06'0 0.0
2018-May-23 14:59N 49°17' W 123°06'0 0.0
2018-May-23 14:29N 49°17' W 123°06'0 0.0
2018-May-23 14:00N 49°17' W 123°06'1 1.0
2018-May-23 13:30N 49°18' W 123°06'4 7.4
2018-May-23 13:00N 49°19' W 123°12'510.5
2018-May-23 12:30N 49°19' W 123°20'5 9.3
2018-May-23 12:00N 49°19' W 123°27'816.7
2018-May-23 11:30N 49°20' W 123°40'817.0
2018-May-23 11:00N 49°21' W 123°53'1019.6
2018-May-23 10:30N 49°23' W 124°07'1120.4
2018-May-23 09:59N 49°27' W 124°23'1020.7
2018-May-23 09:30N 49°33' W 124°34'1121.2
2018-May-23 09:01N 49°41' W 124°45'1121.5
2018-May-23 08:31N 49°49' W 124°56'1020.2
2018-May-23 08:00N 49°56' W 125°07'714.4
2018-May-23 07:30N 50°02' W 125°14'713.8
2018-May-23 07:01N 50°07' W 125°21'712.8
2018-May-23 06:29N 50°14' W 125°23'612.5
2018-May-23 06:00N 50°20' W 125°25'4712.9
2018-May-23 02:21N 50°31' W 126°37'513.6
2018-May-23 02:00N 50°35' W 126°42'713.8
2018-May-23 01:29N 50°39' W 126°50'714.2
2018-May-23 00:59N 50°43' W 127°00'713.9
2018-May-23 00:30N 50°45' W 127°10'713.8
2018-May-23 00:01N 50°48' W 127°20'713.9
2018-May-22 23:31N 50°51' W 127°30'714.2
2018-May-22 23:01N 50°55' W 127°39'713.7
2018-May-22 22:30N 50°59' W 127°48'610.9
2018-May-22 21:59N 51°03' W 127°54'612.9
2018-May-22 21:30N 51°07' W 128°02'612.7
2018-May-22 21:00N 51°11' W 128°10'612.5
2018-May-22 20:30N 51°15' W 128°17'612.5
2018-May-22 20:00N 51°19' W 128°25'713.4
2018-May-22 19:30N 51°23' W 128°33'713.5
2018-May-22 19:00N 51°29' W 128°39'714.1
2018-May-22 18:30N 51°35' W 128°46'714.3
2018-May-22 18:00N 51°40' W 128°53'714.2
2018-May-22 17:30N 51°46' W 128°59'714.1
2018-May-22 17:00N 51°52' W 129°06'714.1
2018-May-22 16:30N 51°57' W 129°13'714.1
2018-May-22 16:00N 52°03' W 129°20'714.4
2018-May-22 15:30N 52°09' W 129°27'815.0
2018-May-22 15:00N 52°15' W 129°34'6916.2
2018-May-22 10:47N 53°13' W 130°34'516.4
2018-May-22 10:30N 53°17' W 130°38'3 5.5
2018-May-22 10:00N 53°18' W 130°42'7142.1 140 / 321012.8 5.4 10.010.0 9.0
2018-May-22 09:56N 53°25' W 130°46'716.3
2018-May-22 09:30N 53°32' W 130°49'816.5
2018-May-22 09:00N 53°40' W 130°52'816.4
2018-May-22 08:30N 53°48' W 130°54'816.3
2018-May-22 08:00N 53°56' W 130°57'816.3
2018-May-22 07:30N 54°04' W 130°60'816.3
2018-May-22 07:00N 54°12' W 131°02'815.8
2018-May-22 06:30N 54°20' W 131°05'815.4
2018-May-22 06:00N 54°26' W 131°11'815.9
2018-May-22 05:30N 54°34' W 131°17'916.0
2018-May-22 04:56N 54°43' W 131°14'613.4
2018-May-22 04:30N 54°48' W 131°11'816.0
2018-May-22 03:58N 54°56' W 131°08'27 5.4
2018-May-21 23:00N 55°18' W 131°36'89 7.4 150 / 191013.910.8 12.0 9.010.0
2018-May-21 11:00N 56°12' W 133°42'127 2.5 250 / 131009.210.8 9.0 6.9 7.0
2018-May-19 07:00N 58°09' W 135°15'611.7
2018-May-19 06:30N 58°12' W 135°25'612.2
2018-May-19 06:00N 58°15' W 135°35'612.4
2018-May-19 05:30N 58°18' W 135°45'611.7
2018-May-19 04:59N 58°20' W 135°56'611.9
2018-May-19 04:30N 58°26' W 135°57'1 1.4
2018-May-19 04:00N 58°26' W 135°57'1 2.3
2018-May-19 03:30N 58°26' W 135°59'3 5.1
2018-May-19 03:00N 58°28' W 136°02'5 9.3
2018-May-19 02:30N 58°33' W 136°04'4 8.6
2018-May-19 02:00N 58°37' W 136°05'5 9.6
2018-May-19 01:30N 58°41' W 136°11'611.9
2018-May-19 01:00N 58°45' W 136°19'611.5
2018-May-19 00:29N 58°49' W 136°28'8 1.6
2018-May-18 19:27N 58°53' W 136°41'817.8
2018-May-18 19:00N 58°48' W 136°28'918.0
2018-May-18 18:30N 58°43' W 136°15'917.7
2018-May-18 18:00N 58°36' W 136°04'816.0
2018-May-18 17:30N 58°28' W 136°02'510.1
2018-May-18 17:01N 58°23' W 135°58'611.2
2018-May-18 16:31N 58°20' W 136°07'6010.8
2018-May-18 11:00N 58°24' W 138°00'4615.2 330 / 181016.610.8 8.5 7.4 8.0
2018-May-18 08:00N 58°54' W 139°06'140 8.2 350 / 181019.610.8 8.5 6.3 7.0
2018-May-17 15:00N 59°30' W 143°30'8120.3 140 / 81028.910.8 7.0 3.5 6.0
2018-May-17 11:00N 60°00' W 146°00'88 7.3 140 / 41025.610.8 6.0 4.8 7.0
2018-May-16 23:00N 60°42' W 148°36'218 6.0 040 / 121026.6 5.4 7.0 3.5 7.0
2018-May-15 11:00N 59°12' W 142°00'7418.6 250 / 121019.810.8 9.0-1.4 7.0
2018-May-15 07:00N 58°42' W 139°48'11216.2 250 / 151019.910.8 6.5 2.9 8.0
2018-May-15 00:04N 58°18' W 136°18'216.9
2018-May-14 23:58N 58°18' W 136°15'918.5
2018-May-14 23:30N 58°22' W 136°00'611.1
2018-May-14 23:00N 58°27' W 136°01'918.1
2018-May-14 22:30N 58°36' W 136°05'918.6
2018-May-14 22:00N 58°44' W 136°16'14 2.6
2018-May-14 16:45N 58°52' W 136°36'520.2
2018-May-14 16:30N 58°49' W 136°28'1019.6
2018-May-14 16:00N 58°42' W 136°14'919.0
2018-May-14 15:30N 58°35' W 136°04'917.0
2018-May-14 15:00N 58°26' W 136°00'5 9.7
2018-May-14 14:31N 58°22' W 136°01'11 2.7
2018-May-14 10:20N 58°18' W 136°21'722.2
2018-May-14 10:01N 58°19' W 136°07'1122.2
2018-May-14 09:30N 58°19' W 135°46'1121.3
2018-May-14 09:00N 58°14' W 135°28'  

Dump ship's entire track history